Time;durP1;ratioP1;P1;durP2;ratioP2;P2;SDS_P1;SDS_P2;PMS_P1;PMS_P2;Temp;Humidity;BMP_temperature;BMP_pressure;BME280_temperature;BME280_humidity;BME280_pressure;Samples;Min_cycle;Max_cycle;Signal;HPM_P1;HPM_P2
2023/08/19 00:02:10;;;;;;;9.60;8.35;;;19.50;99.90;;;;;;5122387;27;20253;-57
2023/08/19 00:04:36;;;;;;;9.00;8.10;;;19.50;99.90;;;;;;5129097;27;20189;-51
2023/08/19 00:07:03;;;;;;;10.10;8.60;;;19.50;99.90;;;;;;5092574;27;20229;-59
2023/08/19 00:09:34;;;;;;;9.45;8.25;;;19.50;99.90;;;;;;5121900;27;20217;-52
2023/08/19 00:12:01;;;;;;;9.80;8.10;;;19.50;99.90;;;;;;5129445;27;20196;-57
2023/08/19 00:14:30;;;;;;;10.13;8.07;;;19.40;99.90;;;;;;5132974;27;20196;-49
2023/08/19 00:16:57;;;;;;;11.73;8.35;;;19.40;99.90;;;;;;5134625;27;20213;-59
2023/08/19 00:19:24;;;;;;;11.53;8.33;;;19.40;99.90;;;;;;5129415;27;20192;-47
2023/08/19 00:21:50;;;;;;;10.52;7.93;;;19.40;99.90;;;;;;5112841;27;20211;-58
2023/08/19 00:24:17;;;;;;;9.67;8.23;;;19.40;99.90;;;;;;5118123;27;20249;-49
2023/08/19 00:26:44;;;;;;;9.70;7.65;;;19.40;99.90;;;;;;5134429;27;20295;-52
2023/08/19 00:29:11;;;;;;;11.53;8.47;;;19.40;99.90;;;;;;5117262;27;20212;-52
2023/08/19 00:31:39;;;;;;;9.73;8.80;;;19.40;99.90;;;;;;5127723;27;20192;-51
2023/08/19 00:34:07;;;;;;;12.27;7.97;;;19.40;99.90;;;;;;5124938;27;20201;-57
2023/08/19 00:36:34;;;;;;;11.90;8.67;;;19.30;99.90;;;;;;5104872;27;20215;-50
2023/08/19 00:39:00;;;;;;;12.73;8.93;;;19.30;99.90;;;;;;5120436;27;20808;-58
2023/08/19 00:41:28;;;;;;;10.23;8.63;;;19.30;99.90;;;;;;5130774;27;20223;-53
2023/08/19 00:43:56;;;;;;;14.33;8.23;;;19.40;99.90;;;;;;5125362;27;20199;-58
2023/08/19 00:46:22;;;;;;;11.00;8.50;;;19.40;99.90;;;;;;5120303;27;20212;-54
2023/08/19 00:48:51;;;;;;;9.50;8.25;;;19.40;99.90;;;;;;5130232;27;20216;-55
2023/08/19 00:51:18;;;;;;;9.43;7.90;;;19.40;99.90;;;;;;5109613;27;20189;-50
2023/08/19 00:53:45;;;;;;;10.47;7.90;;;19.30;99.90;;;;;;5109296;27;20192;-50
2023/08/19 00:56:13;;;;;;;9.87;7.87;;;19.30;99.90;;;;;;5114492;27;20261;-50
2023/08/19 00:58:39;;;;;;;10.13;8.07;;;19.30;99.90;;;;;;5128595;27;20253;-53
2023/08/19 01:01:07;;;;;;;9.35;8.45;;;19.20;99.90;;;;;;5123120;27;20203;-58
2023/08/19 01:03:34;;;;;;;9.87;8.97;;;19.20;99.90;;;;;;5127126;27;20197;-51
2023/08/19 01:06:13;;;;;;;9.80;8.30;;;19.20;99.90;;;;;;5119245;27;20208;-60
2023/08/19 01:08:44;;;;;;;11.87;9.03;;;19.20;99.90;;;;;;5105378;27;20211;-50
2023/08/19 01:11:17;;;;;;;10.83;9.17;;;19.20;99.90;;;;;;5116758;27;20284;-51
2023/08/19 01:13:54;;;;;;;9.67;8.57;;;19.20;99.90;;;;;;5121706;27;20666;-52
2023/08/19 01:16:24;;;;;;;10.90;9.33;;;19.10;99.90;;;;;;5129205;27;20203;-53
2023/08/19 01:18:53;;;;;;;11.87;7.77;;;19.10;99.90;;;;;;5133396;27;20195;-59
2023/08/19 01:21:22;;;;;;;16.33;9.73;;;19.10;99.90;;;;;;5113474;27;20201;-52
2023/08/19 01:23:53;;;;;;;12.30;10.17;;;19.10;99.90;;;;;;5133527;27;20191;-61
2023/08/19 01:26:22;;;;;;;12.40;9.30;;;19.10;99.90;;;;;;5106415;27;20224;-50
2023/08/19 01:28:50;;;;;;;9.30;8.40;;;19.10;99.90;;;;;;5131224;27;20216;-58
2023/08/19 01:31:16;;;;;;;9.97;8.37;;;19.10;99.90;;;;;;5133978;27;20196;-55
2023/08/19 01:33:43;;;;;;;8.87;8.03;;;19.10;99.90;;;;;;5132244;27;20608;-50
2023/08/19 01:36:16;;;;;;;12.00;9.83;;;19.10;99.90;;;;;;5116390;27;20289;-50
2023/08/19 01:38:49;;;;;;;10.57;9.40;;;19.10;99.90;;;;;;5122030;27;20192;-52
2023/08/19 01:41:17;;;;;;;10.10;9.13;;;19.10;99.90;;;;;;5111360;27;20330;-51
2023/08/19 01:43:46;;;;;;;12.37;10.07;;;19.10;99.90;;;;;;5133134;27;20199;-50
2023/08/19 01:46:14;;;;;;;11.53;10.07;;;19.10;99.90;;;;;;5122924;27;20200;-52
2023/08/19 01:48:41;;;;;;;13.37;8.90;;;19.10;99.90;;;;;;5125260;27;20208;-54
2023/08/19 01:51:08;;;;;;;11.70;9.77;;;19.10;99.90;;;;;;5119567;27;20869;-53
2023/08/19 01:53:34;;;;;;;13.97;10.67;;;19.10;99.90;;;;;;5110627;27;20253;-52
2023/08/19 01:56:01;;;;;;;13.20;9.60;;;19.10;99.90;;;;;;5102546;27;21449;-60
2023/08/19 01:58:28;;;;;;;13.70;10.30;;;19.10;99.90;;;;;;5124358;27;20196;-53
2023/08/19 02:00:56;;;;;;;10.73;9.63;;;19.10;99.90;;;;;;5124461;27;20304;-60
2023/08/19 02:03:23;;;;;;;13.73;9.87;;;19.00;99.90;;;;;;5120860;27;20893;-51
2023/08/19 02:05:50;;;;;;;13.13;10.63;;;19.10;99.90;;;;;;5124803;27;20265;-58
2023/08/19 02:08:17;;;;;;;10.80;9.70;;;19.10;99.90;;;;;;5118771;27;20248;-51
2023/08/19 02:10:44;;;;;;;11.93;9.53;;;19.00;99.90;;;;;;5128055;27;20233;-51
2023/08/19 02:13:10;;;;;;;12.37;10.80;;;19.00;99.90;;;;;;5102174;27;20196;-52
2023/08/19 02:15:38;;;;;;;13.90;10.03;;;19.00;99.90;;;;;;5127784;27;20576;-56
2023/08/19 02:18:06;;;;;;;16.83;10.23;;;19.00;99.90;;;;;;5130358;27;20193;-58
2023/08/19 02:20:33;;;;;;;11.97;10.40;;;19.00;99.90;;;;;;5135559;27;20192;-52
2023/08/19 02:23:00;;;;;;;13.17;10.53;;;19.00;99.90;;;;;;5136152;27;20206;-58
2023/08/19 02:25:27;;;;;;;11.83;10.57;;;19.00;99.90;;;;;;5114728;27;20192;-51
2023/08/19 02:27:54;;;;;;;11.80;10.50;;;19.00;99.90;;;;;;5114313;27;20670;-58
2023/08/19 02:30:21;;;;;;;14.43;10.00;;;19.00;99.90;;;;;;5122874;27;20280;-52
2023/08/19 02:32:48;;;;;;;11.20;10.07;;;18.90;99.90;;;;;;5131570;27;20193;-51
2023/08/19 02:35:17;;;;;;;13.43;12.03;;;18.90;99.90;;;;;;5133585;27;20891;-47
2023/08/19 02:37:44;;;;;;;12.70;10.97;;;18.90;99.90;;;;;;5138938;27;20192;-52
2023/08/19 02:40:11;;;;;;;14.73;11.33;;;18.90;99.90;;;;;;5122914;27;20198;-51
2023/08/19 02:42:39;;;;;;;11.97;10.77;;;18.90;99.90;;;;;;5100956;27;20201;-49
2023/08/19 02:45:07;;;;;;;11.63;10.43;;;18.90;99.90;;;;;;5127588;27;20191;-59
2023/08/19 02:47:34;;;;;;;14.57;11.33;;;18.90;99.90;;;;;;5132702;27;20247;-51
2023/08/19 02:50:00;;;;;;;12.47;11.17;;;18.90;99.90;;;;;;5131784;27;20211;-59
2023/08/19 02:52:29;;;;;;;12.57;10.23;;;18.90;99.90;;;;;;5135460;27;20193;-49
2023/08/19 02:54:55;;;;;;;14.03;10.87;;;18.90;99.90;;;;;;5131982;27;20196;-60
2023/08/19 02:57:22;;;;;;;13.97;10.73;;;18.90;99.90;;;;;;5103228;27;20964;-53
2023/08/19 02:59:49;;;;;;;16.60;11.20;;;18.80;99.90;;;;;;5132070;27;20180;-58
2023/08/19 03:02:16;;;;;;;11.73;10.43;;;18.80;99.90;;;;;;5119330;27;20192;-50
2023/08/19 03:04:43;;;;;;;13.87;11.00;;;18.80;99.90;;;;;;5136480;27;20200;-50
2023/08/19 03:07:10;;;;;;;14.73;10.50;;;18.80;99.90;;;;;;5125951;27;20208;-50
2023/08/19 03:09:38;;;;;;;11.47;10.33;;;18.80;99.90;;;;;;5129005;27;20226;-55
2023/08/19 03:12:05;;;;;;;15.17;11.40;;;18.80;99.90;;;;;;5126613;27;20250;-60
2023/08/19 03:14:33;;;;;;;17.23;11.77;;;18.80;99.90;;;;;;5099298;27;20209;-57
2023/08/19 03:17:00;;;;;;;12.63;10.63;;;18.70;99.90;;;;;;5117254;27;20319;-51
2023/08/19 03:19:27;;;;;;;13.07;10.87;;;18.70;99.90;;;;;;5131270;27;20646;-53
2023/08/19 03:21:54;;;;;;;17.67;10.70;;;18.70;99.90;;;;;;5126215;27;20827;-52
2023/08/19 03:24:21;;;;;;;15.40;11.23;;;18.70;99.90;;;;;;5136139;27;20196;-52
2023/08/19 03:26:49;;;;;;;15.00;10.40;;;18.70;99.90;;;;;;5134006;27;20219;-60
2023/08/19 03:29:16;;;;;;;20.13;11.47;;;18.70;99.90;;;;;;5115841;27;20205;-48
2023/08/19 03:31:43;;;;;;;13.50;12.07;;;18.70;99.90;;;;;;5134047;27;20287;-59
2023/08/19 03:34:10;;;;;;;16.33;11.73;;;18.60;99.90;;;;;;5122538;27;20196;-55
2023/08/19 03:36:37;;;;;;;14.33;11.47;;;18.60;99.90;;;;;;5134632;27;20212;-60
2023/08/19 03:39:04;;;;;;;13.43;11.03;;;18.70;99.90;;;;;;5126813;27;20958;-49
2023/08/19 03:41:31;;;;;;;17.27;11.97;;;18.60;99.90;;;;;;5130610;27;20199;-49
2023/08/19 03:44:00;;;;;;;12.10;10.93;;;18.60;99.90;;;;;;5104237;27;20269;-52
2023/08/19 03:46:26;;;;;;;15.10;11.93;;;18.60;99.90;;;;;;5118830;27;20211;-50
2023/08/19 03:48:54;;;;;;;14.43;12.00;;;18.60;99.90;;;;;;5128179;27;20188;-51
2023/08/19 03:51:22;;;;;;;13.10;11.80;;;18.60;99.90;;;;;;5128983;27;20292;-52
2023/08/19 03:53:49;;;;;;;13.13;11.20;;;18.70;99.90;;;;;;5118408;27;20193;-59
2023/08/19 03:56:15;;;;;;;12.80;11.40;;;18.70;99.90;;;;;;5133355;27;20273;-50
2023/08/19 03:58:43;;;;;;;15.87;11.37;;;18.70;99.90;;;;;;5130112;27;20222;-58
2023/08/19 04:01:11;;;;;;;13.17;11.57;;;18.70;99.90;;;;;;5092703;27;20212;-51
2023/08/19 04:03:40;;;;;;;13.40;10.33;;;18.60;99.90;;;;;;5118929;27;20658;-59
2023/08/19 04:06:07;;;;;;;11.93;10.70;;;18.70;99.90;;;;;;5129655;27;20221;-49
2023/08/19 04:08:34;;;;;;;11.83;10.63;;;18.60;99.90;;;;;;5092499;27;20208;-58
2023/08/19 04:11:05;;;;;;;11.70;10.53;;;18.70;99.90;;;;;;5126753;27;20216;-48
2023/08/19 04:13:32;;;;;;;13.33;11.33;;;18.70;99.90;;;;;;5132860;27;20260;-55
2023/08/19 04:16:03;;;;;;;13.77;11.57;;;18.70;99.90;;;;;;5103578;27;20342;-49
2023/08/19 04:18:33;;;;;;;12.47;10.97;;;18.70;99.90;;;;;;5130469;27;20209;-51
2023/08/19 04:21:04;;;;;;;12.60;10.93;;;18.70;99.90;;;;;;5120897;27;20200;-51
2023/08/19 04:23:31;;;;;;;12.13;10.33;;;18.60;99.90;;;;;;5121624;27;20319;-51
2023/08/19 04:25:58;;;;;;;15.43;10.47;;;18.70;99.90;;;;;;5117052;27;20223;-48
2023/08/19 04:28:26;;;;;;;12.07;10.87;;;18.70;99.90;;;;;;5129749;27;20193;-49
2023/08/19 04:31:01;;;;;;;13.17;10.83;;;18.60;99.90;;;;;;5131739;27;20212;-47
2023/08/19 04:33:28;;;;;;;12.40;11.20;;;18.70;99.90;;;;;;5094799;27;20307;-59
2023/08/19 04:35:56;;;;;;;11.30;10.20;;;18.70;99.90;;;;;;5120847;27;20232;-52
2023/08/19 04:38:23;;;;;;;14.53;11.10;;;18.70;99.90;;;;;;5119543;27;20201;-56
2023/08/19 04:40:51;;;;;;;14.23;11.50;;;18.70;99.90;;;;;;5117474;27;20288;-49
2023/08/19 04:43:19;;;;;;;12.57;11.27;;;18.70;99.90;;;;;;5129312;27;20283;-52
2023/08/19 04:45:46;;;;;;;11.80;10.47;;;18.80;99.90;;;;;;5128728;27;20878;-52
2023/08/19 04:48:14;;;;;;;13.80;10.17;;;18.80;99.90;;;;;;5100724;27;20292;-52
2023/08/19 04:50:41;;;;;;;11.23;10.13;;;18.80;99.90;;;;;;5114769;27;20605;-52
2023/08/19 04:53:09;;;;;;;14.37;11.63;;;18.80;99.90;;;;;;5127841;27;20199;-52
2023/08/19 04:55:36;;;;;;;21.10;12.30;;;18.80;99.90;;;;;;5103713;27;20221;-58
2023/08/19 04:58:03;;;;;;;11.53;10.33;;;18.80;99.90;;;;;;5117998;27;20193;-48
2023/08/19 05:00:30;;;;;;;11.63;10.27;;;18.90;99.90;;;;;;5128206;27;20212;-60
2023/08/19 05:02:57;;;;;;;11.07;10.07;;;18.90;99.90;;;;;;5125113;27;20192;-52
2023/08/19 05:05:25;;;;;;;12.77;10.90;;;18.90;99.90;;;;;;5104714;27;20209;-58
2023/08/19 05:07:52;;;;;;;12.20;10.43;;;18.90;99.90;;;;;;5125413;27;20212;-49
2023/08/19 05:10:21;;;;;;;11.13;10.00;;;19.00;99.90;;;;;;5115566;27;20216;-48
2023/08/19 05:12:48;;;;;;;12.50;10.33;;;19.00;99.90;;;;;;5116407;27;20341;-54
2023/08/19 05:15:15;;;;;;;12.33;11.03;;;19.00;99.90;;;;;;5126300;27;20213;-52
2023/08/19 05:17:42;;;;;;;11.60;9.90;;;19.10;99.90;;;;;;5122296;27;20189;-50
2023/08/19 05:20:10;;;;;;;11.70;10.50;;;19.10;99.90;;;;;;5105158;27;21734;-54
2023/08/19 05:22:37;;;;;;;11.17;10.07;;;19.10;99.90;;;;;;5126831;27;20189;-59
2023/08/19 05:25:05;;;;;;;11.53;10.33;;;19.20;99.90;;;;;;5116827;27;20331;-49
2023/08/19 05:27:33;;;;;;;10.67;9.77;;;19.20;99.90;;;;;;5117421;27;20212;-59
2023/08/19 05:30:00;;;;;;;11.83;9.93;;;19.30;99.90;;;;;;5130026;27;20235;-55
2023/08/19 05:32:27;;;;;;;13.17;10.30;;;19.30;99.90;;;;;;5130116;27;20193;-59
2023/08/19 05:34:54;;;;;;;13.47;10.17;;;19.30;99.90;;;;;;5110308;27;20231;-56
2023/08/19 05:37:21;;;;;;;11.07;9.77;;;19.30;99.90;;;;;;5128478;27;20216;-55
2023/08/19 05:39:49;;;;;;;11.13;10.23;;;19.40;99.90;;;;;;5111304;27;20874;-52
2023/08/19 05:42:16;;;;;;;11.87;9.83;;;19.40;99.90;;;;;;5127775;27;20279;-56
2023/08/19 05:44:44;;;;;;;10.80;9.40;;;19.50;99.90;;;;;;5101900;27;20216;-54
2023/08/19 05:47:11;;;;;;;11.20;9.60;;;19.50;99.90;;;;;;5127307;27;20601;-54
2023/08/19 05:49:37;;;;;;;10.33;9.43;;;19.60;99.90;;;;;;5110205;27;20197;-57
2023/08/19 05:52:05;;;;;;;13.07;9.93;;;19.60;99.90;;;;;;5124951;27;20285;-58
2023/08/19 05:54:31;;;;;;;10.45;9.10;;;19.70;99.90;;;;;;5122663;27;20192;-58
2023/08/19 05:56:58;;;;;;;10.43;9.53;;;19.70;99.90;;;;;;5102999;27;20224;-54
2023/08/19 05:59:25;;;;;;;10.43;9.43;;;19.80;99.90;;;;;;5110893;27;20189;-50
2023/08/19 06:01:53;;;;;;;10.57;9.20;;;19.80;99.90;;;;;;5122595;27;20192;-55
2023/08/19 06:04:20;;;;;;;11.80;9.00;;;19.90;99.90;;;;;;5112372;27;20245;-48
2023/08/19 06:06:47;;;;;;;10.07;9.10;;;19.90;99.90;;;;;;5102957;27;20264;-57
2023/08/19 06:09:14;;;;;;;9.97;8.93;;;20.00;99.90;;;;;;5123417;27;20853;-53
2023/08/19 06:11:47;;;;;;;9.70;8.80;;;20.00;99.90;;;;;;5113792;27;20513;-50
2023/08/19 06:14:15;;;;;;;10.82;9.10;;;20.10;99.90;;;;;;5110348;27;20380;-52
2023/08/19 06:16:41;;;;;;;9.88;8.88;;;20.10;99.90;;;;;;5126414;27;20204;-50
2023/08/19 06:19:10;;;;;;;9.57;8.73;;;20.20;99.90;;;;;;5108794;27;20207;-52
2023/08/19 06:21:37;;;;;;;8.95;7.93;;;20.30;99.90;;;;;;5107027;27;20277;-50
2023/08/19 06:24:05;;;;;;;9.60;8.68;;;20.30;99.90;;;;;;5126028;27;20187;-48
2023/08/19 06:26:32;;;;;;;10.15;8.98;;;20.40;99.90;;;;;;5113213;27;20698;-51
2023/08/19 06:28:59;;;;;;;11.25;9.07;;;20.40;99.90;;;;;;5125197;27;20188;-56
2023/08/19 06:31:26;;;;;;;10.10;8.90;;;20.50;99.90;;;;;;5130277;27;20200;-50
2023/08/19 06:33:54;;;;;;;9.88;8.50;;;20.50;99.90;;;;;;5121545;27;20205;-56
2023/08/19 06:36:25;;;;;;;9.75;8.85;;;20.60;99.90;;;;;;5133767;27;20220;-49
2023/08/19 06:39:02;;;;;;;9.50;8.70;;;20.70;99.90;;;;;;5105419;27;20201;-55
2023/08/19 06:41:30;;;;;;;9.77;8.88;;;20.70;99.90;;;;;;5121342;27;20192;-51
2023/08/19 06:43:58;;;;;;;10.15;8.57;;;20.80;99.90;;;;;;5117044;27;20535;-58
2023/08/19 06:46:26;;;;;;;10.10;9.05;;;20.80;99.90;;;;;;5126889;27;20212;-50
2023/08/19 06:48:53;;;;;;;10.10;7.95;;;20.90;99.90;;;;;;5107082;27;20213;-57
2023/08/19 06:51:22;;;;;;;10.18;9.18;;;21.00;99.90;;;;;;5128249;27;20209;-46
2023/08/19 06:53:49;;;;;;;10.77;8.15;;;21.10;99.90;;;;;;5106057;27;20220;-59
2023/08/19 06:56:25;;;;;;;10.35;8.10;;;21.10;99.90;;;;;;5127458;27;20224;-52
2023/08/19 06:58:55;;;;;;;10.38;9.18;;;21.20;99.90;;;;;;5119569;27;20192;-62
2023/08/19 07:01:26;;;;;;;9.55;8.65;;;21.30;99.90;;;;;;5111166;27;20272;-53
2023/08/19 07:04:02;;;;;;;9.25;8.00;;;21.40;99.90;;;;;;5122501;27;20242;-62
2023/08/19 07:06:39;;;;;;;9.63;8.65;;;21.40;99.90;;;;;;5118611;27;20221;-50
2023/08/19 07:09:23;;;;;;;10.63;8.30;;;21.50;99.90;;;;;;5089673;27;20193;-55
2023/08/19 07:11:51;;;;;;;8.85;8.10;;;21.60;99.90;;;;;;5121067;27;20204;-62
2023/08/19 07:14:24;;;;;;;9.38;8.48;;;21.70;99.90;;;;;;5104669;27;20209;-56
2023/08/19 07:17:03;;;;;;;9.70;8.52;;;21.70;99.90;;;;;;5111055;27;20221;-62
2023/08/19 07:19:43;;;;;;;10.00;9.20;;;21.80;99.90;;;;;;5128283;27;20272;-53
2023/08/19 07:22:21;;;;;;;9.88;8.98;;;21.80;99.90;;;;;;5124206;27;20918;-56
2023/08/19 07:24:50;;;;;;;9.00;8.20;;;21.90;99.90;;;;;;5100005;27;20203;-61
2023/08/19 07:27:25;;;;;;;8.98;8.27;;;22.00;99.90;;;;;;5123247;27;20220;-50
2023/08/19 07:30:05;;;;;;;9.30;8.23;;;22.10;99.90;;;;;;5103728;27;20211;-53
2023/08/19 07:32:37;;;;;;;9.10;8.20;;;22.20;99.90;;;;;;5108002;27;20600;-64
2023/08/19 07:35:26;;;;;;;9.60;8.63;;;22.30;99.90;;;;;;5133113;27;20279;-62
2023/08/19 07:37:55;;;;;;;9.50;8.68;;;22.40;99.90;;;;;;5126608;27;20193;-53
2023/08/19 07:41:06;;;;;;;9.57;8.77;;;22.50;99.90;;;;;;5098742;27;20725;-62
2023/08/19 07:43:36;;;;;;;9.10;8.20;;;22.50;99.90;;;;;;5125563;27;20267;-58
2023/08/19 07:46:17;;;;;;;9.52;8.60;;;22.50;99.90;;;;;;5132293;27;20288;-56
2023/08/19 07:48:47;;;;;;;9.52;8.38;;;22.70;99.90;;;;;;5118421;27;20196;-54
2023/08/19 07:51:17;;;;;;;8.40;7.65;;;22.80;99.90;;;;;;5114719;27;20209;-60
2023/08/19 07:53:52;;;;;;;8.70;8.00;;;22.90;99.90;;;;;;5123608;27;20181;-55
2023/08/19 07:56:31;;;;;;;9.52;8.63;;;23.00;99.90;;;;;;5087378;27;20216;-61
2023/08/19 07:59:03;;;;;;;9.02;8.15;;;23.10;99.90;;;;;;5125509;27;20690;-49
2023/08/19 08:01:43;;;;;;;8.85;8.13;;;23.20;99.90;;;;;;5105202;27;20279;-49
2023/08/19 08:04:21;;;;;;;9.57;8.63;;;23.30;99.90;;;;;;5107726;27;20212;-59
2023/08/19 08:06:55;;;;;;;8.80;8.07;;;23.40;99.90;;;;;;5110382;27;20292;-55
2023/08/19 08:09:38;;;;;;;8.65;7.90;;;23.50;99.90;;;;;;5112647;27;20200;-55
2023/08/19 08:12:06;;;;;;;9.18;8.23;;;23.60;99.90;;;;;;5099733;27;20204;-63
2023/08/19 08:14:37;;;;;;;8.05;7.35;;;23.70;99.90;;;;;;5118794;27;20187;-49
2023/08/19 08:17:07;;;;;;;8.80;7.90;;;23.90;99.90;;;;;;5114728;27;20216;-58
2023/08/19 08:19:39;;;;;;;8.20;7.57;;;24.00;99.90;;;;;;5118923;27;20220;-52
2023/08/19 08:22:14;;;;;;;9.15;8.35;;;24.10;99.90;;;;;;5123673;27;21363;-61
2023/08/19 08:24:43;;;;;;;9.20;8.30;;;24.20;99.90;;;;;;5111843;27;21368;-55
2023/08/19 08:27:13;;;;;;;11.55;7.82;;;24.30;99.90;;;;;;5110400;27;20742;-60
2023/08/19 08:29:42;;;;;;;9.68;8.75;;;24.40;99.90;;;;;;5128056;27;20509;-51
2023/08/19 08:32:10;;;;;;;8.98;8.15;;;24.50;99.90;;;;;;5094600;27;20270;-60
2023/08/19 08:34:40;;;;;;;8.57;7.88;;;24.60;99.90;;;;;;5102702;27;20301;-56
2023/08/19 08:37:10;;;;;;;8.13;7.53;;;24.70;99.90;;;;;;5103559;27;20217;-61
2023/08/19 08:39:45;;;;;;;8.52;7.72;;;24.80;99.90;;;;;;5111907;27;20215;-49
2023/08/19 08:42:21;;;;;;;10.02;9.02;;;24.90;99.90;;;;;;5093118;27;20200;-59
2023/08/19 08:44:55;;;;;;;8.38;7.65;;;25.00;99.90;;;;;;5110674;27;20204;-50
2023/08/19 08:47:24;;;;;;;9.15;8.30;;;25.00;99.90;;;;;;5097758;27;20212;-48
2023/08/19 08:49:58;;;;;;;8.55;7.85;;;25.00;99.90;;;;;;5108888;27;20292;-51
2023/08/19 08:52:34;;;;;;;8.43;7.80;;;24.90;99.90;;;;;;5108059;27;20224;-48
2023/08/19 08:55:04;;;;;;;11.60;8.60;;;25.00;99.90;;;;;;5122363;27;20221;-57
2023/08/19 08:57:42;;;;;;;8.57;7.88;;;25.10;99.90;;;;;;5095776;27;20354;-49
2023/08/19 09:00:19;;;;;;;9.13;8.25;;;25.20;99.90;;;;;;5115432;27;20662;-61
2023/08/19 09:02:51;;;;;;;8.25;7.63;;;25.40;99.90;;;;;;5115417;27;20289;-52
2023/08/19 09:05:31;;;;;;;11.05;8.18;;;25.50;99.90;;;;;;5107048;27;20193;-57
2023/08/19 09:08:06;;;;;;;8.43;7.70;;;25.50;99.90;;;;;;5116378;27;20688;-60
2023/08/19 09:10:38;;;;;;;8.23;7.53;;;25.60;99.90;;;;;;5124957;27;20270;-52
2023/08/19 09:13:13;;;;;;;8.43;7.82;;;25.80;99.90;;;;;;5107172;27;20280;-61
2023/08/19 09:15:49;;;;;;;8.45;7.75;;;25.80;99.90;;;;;;5119116;27;20222;-49
2023/08/19 09:18:28;;;;;;;9.00;8.18;;;25.90;99.90;;;;;;5107839;27;20576;-59
2023/08/19 09:20:57;;;;;;;8.57;7.78;;;25.90;99.90;;;;;;5112259;27;20275;-49
2023/08/19 09:23:29;;;;;;;9.15;8.25;;;26.00;99.90;;;;;;5119685;27;20312;-52
2023/08/19 09:26:03;;;;;;;8.57;7.70;;;26.00;99.90;;;;;;5121576;27;20220;-51
2023/08/19 09:28:34;;;;;;;8.43;7.72;;;26.00;99.90;;;;;;5104827;27;20284;-52
2023/08/19 09:31:24;;;;;;;8.13;7.53;;;26.10;99.90;;;;;;5099347;27;20228;-58
2023/08/19 09:34:02;;;;;;;9.77;8.82;;;26.20;99.90;;;;;;5107013;27;20212;-54
2023/08/19 09:36:34;;;;;;;8.60;7.80;;;26.30;99.90;;;;;;5106628;27;20232;-48
2023/08/19 09:39:04;;;;;;;8.43;7.78;;;26.30;99.90;;;;;;5125471;27;20219;-59
2023/08/19 09:41:34;;;;;;;9.10;8.27;;;26.40;99.90;;;;;;5119947;27;20192;-52
2023/08/19 09:44:04;;;;;;;8.40;7.70;;;26.50;99.90;;;;;;5105360;27;20205;-56
2023/08/19 09:46:35;;;;;;;8.30;7.72;;;26.60;99.90;;;;;;5102707;27;20212;-53
2023/08/19 09:49:12;;;;;;;9.40;8.60;;;26.70;99.90;;;;;;5105635;27;20232;-60
2023/08/19 09:51:54;;;;;;;8.40;7.70;;;26.90;99.90;;;;;;5113491;27;20213;-52
2023/08/19 09:54:23;;;;;;;9.52;8.73;;;26.90;99.90;;;;;;5117269;27;20231;-55
2023/08/19 09:56:58;;;;;;;9.52;8.55;;;26.80;99.90;;;;;;5123404;27;20253;-49
2023/08/19 09:59:28;;;;;;;8.63;7.93;;;26.80;99.90;;;;;;5107263;27;20201;-47
2023/08/19 10:02:00;;;;;;;9.18;8.30;;;26.80;99.90;;;;;;5101340;27;20213;-50
2023/08/19 10:04:32;;;;;;;9.32;8.48;;;26.80;99.90;;;;;;5097113;27;20266;-50
2023/08/19 10:07:05;;;;;;;8.43;7.72;;;26.80;99.90;;;;;;5119983;27;20212;-60
2023/08/19 10:09:41;;;;;;;9.20;8.40;;;26.70;99.90;;;;;;5116722;27;20912;-52
2023/08/19 10:12:21;;;;;;;9.43;8.60;;;26.70;99.90;;;;;;5123155;27;20256;-59
2023/08/19 10:14:57;;;;;;;9.50;8.65;;;26.70;99.90;;;;;;5111414;27;20249;-48
2023/08/19 10:17:36;;;;;;;10.07;9.00;;;26.80;99.90;;;;;;5089798;27;20213;-49
2023/08/19 10:20:12;;;;;;;8.35;7.55;;;26.90;99.90;;;;;;5120610;27;20204;-59
2023/08/19 10:22:45;;;;;;;9.25;8.55;;;27.10;99.90;;;;;;5123849;27;20196;-49
2023/08/19 10:25:19;;;;;;;9.32;8.52;;;27.20;99.90;;;;;;5113986;27;20203;-60
2023/08/19 10:27:50;;;;;;;9.20;8.45;;;27.30;99.90;;;;;;5125024;27;20199;-52
2023/08/19 10:30:31;;;;;;;10.13;9.15;;;27.20;99.90;;;;;;5110461;27;20204;-57
2023/08/19 10:33:03;;;;;;;9.43;8.73;;;27.30;99.90;;;;;;5096474;27;20228;-56
2023/08/19 10:35:50;;;;;;;11.10;9.25;;;27.50;99.90;;;;;;5116322;27;20330;-52
2023/08/19 10:38:17;;;;;;;9.77;8.88;;;27.70;99.90;;;;;;5107655;27;20206;-57
2023/08/19 10:41:00;;;;;;;9.75;8.88;;;27.70;99.90;;;;;;5101716;27;20213;-56
2023/08/19 10:43:28;;;;;;;9.45;8.65;;;27.80;99.90;;;;;;5108571;27;20203;-58
2023/08/19 10:45:58;;;;;;;9.10;8.40;;;27.80;99.90;;;;;;5125004;27;20630;-53
2023/08/19 10:48:32;;;;;;;9.15;8.45;;;27.80;99.90;;;;;;5099277;27;20228;-57
2023/08/19 10:50:59;;;;;;;9.70;8.90;;;27.90;99.90;;;;;;5102285;27;20307;-55
2023/08/19 10:53:26;;;;;;;9.95;8.93;;;27.90;99.90;;;;;;5119771;27;20258;-53
2023/08/19 10:55:53;;;;;;;10.40;8.82;;;;;;;;;;5107551;27;20224;-56
2023/08/19 10:58:24;;;;;;;10.15;9.35;;;;;;;;;;5110766;27;20257;-55
2023/08/19 11:00:53;;;;;;;10.02;9.10;;;;;;;;;;5110575;27;20197;-56
2023/08/19 11:03:20;;;;;;;10.38;9.57;;;;;;;;;;5099915;27;20200;-53
2023/08/19 11:05:50;;;;;;;10.23;9.27;;;;;;;;;;5106110;27;20349;-57
2023/08/19 11:08:17;;;;;;;8.82;8.23;;;;;;;;;;5117046;27;20729;-56
2023/08/19 11:10:47;;;;;;;9.48;8.73;;;;;;;;;;5101234;27;20220;-55
2023/08/19 11:13:16;;;;;;;9.75;8.85;;;;;;;;;;5120895;27;20316;-53
2023/08/19 11:15:46;;;;;;;9.85;9.05;;;;;;;;;;5111702;27;20212;-54
2023/08/19 11:18:21;;;;;;;9.93;9.00;;;;;;;;;;5100793;27;20209;-54
2023/08/19 11:20:48;;;;;;;9.63;8.85;;;;;;;;;;5112454;27;20211;-50
2023/08/19 11:23:26;;;;;;;9.80;9.02;;;;;;;;;;5110372;27;20220;-57
2023/08/19 11:25:53;;;;;;;10.43;8.95;;;;;;;;;;5114181;27;20224;-56
2023/08/19 11:28:20;;;;;;;9.88;9.07;;;;;;;;;;5113407;27;20211;-57
2023/08/19 11:30:47;;;;;;;9.60;8.77;;;;;;;;;;5105745;27;20229;-58
2023/08/19 11:33:18;;;;;;;8.60;7.97;;;;;;;;;;5120395;27;20265;-59
2023/08/19 11:35:47;;;;;;;9.48;8.57;;;;;;;;;;5103823;27;20208;-52
2023/08/19 11:38:14;;;;;;;9.75;8.80;;;;;;;;;;5114744;27;20234;-56
2023/08/19 11:40:42;;;;;;;9.68;8.77;;;;;;;;;;5113765;27;20193;-55
2023/08/19 11:43:10;;;;;;;9.25;8.55;;;;;;;;;;5114978;27;20209;-54
2023/08/19 11:45:38;;;;;;;10.25;9.20;;;;;;;;;;5107566;27;21700;-58
2023/08/19 11:48:06;;;;;;;9.25;8.65;;;;;;;;;;5118019;27;20673;-55
2023/08/19 11:50:35;;;;;;;9.63;8.73;;;;;;;;;;5102778;27;20210;-57
2023/08/19 11:53:04;;;;;;;10.40;8.75;;;;;;;;;;5121668;27;20270;-55
2023/08/19 11:55:31;;;;;;;9.75;9.02;;;;;;;;;;5110614;27;20205;-57
2023/08/19 11:57:58;;;;;;;9.38;8.48;;;;;;;;;;5117625;27;20295;-56
2023/08/19 12:00:27;;;;;;;10.00;9.10;;;;;;;;;;5113362;27;20201;-56
2023/08/19 12:02:54;;;;;;;9.95;8.95;;;;;;;;;;5115640;27;20919;-54
2023/08/19 12:05:24;;;;;;;9.35;8.65;;;;;;;;;;5092982;27;20200;-58
2023/08/19 12:07:51;;;;;;;10.38;9.50;;;;;;;;;;5128203;27;20202;-55
2023/08/19 12:10:19;;;;;;;10.18;9.27;;;;;;;;;;5110598;27;20254;-57
2023/08/19 12:12:59;;;;;;;9.98;9.18;;;;;;;;;;5117860;27;20213;-55
2023/08/19 12:15:26;;;;;;;10.45;9.45;;;;;;;;;;5114874;27;20204;-52
2023/08/19 12:17:53;;;;;;;10.35;9.55;;;;;;;;;;5115770;27;20238;-57
2023/08/19 12:20:21;;;;;;;10.05;9.25;;;;;;;;;;5103088;27;20267;-57
2023/08/19 12:22:48;;;;;;;10.90;10.07;;;;;;;;;;5114391;27;20224;-54
2023/08/19 12:25:15;;;;;;;9.65;8.82;;;;;;;;;;5113153;27;20260;-56
2023/08/19 12:27:44;;;;;;;9.60;8.80;;;;;;;;;;5114518;27;20197;-53
2023/08/19 12:30:11;;;;;;;10.07;9.23;;;;;;;;;;5111485;27;20630;-57
2023/08/19 12:32:38;;;;;;;9.50;8.60;;;;;;;;;;5122618;27;20211;-52
2023/08/19 12:35:06;;;;;;;9.82;8.85;;;;;;;;;;5111758;27;20209;-56
2023/08/19 12:37:34;;;;;;;9.07;8.38;;;;;;;;;;5098227;27;20986;-56
2023/08/19 12:40:03;;;;;;;10.23;9.02;;;;;;;;;;5127577;27;20600;-55
2023/08/19 12:42:30;;;;;;;9.98;9.18;;;;;;;;;;5109756;27;20180;-56
2023/08/19 12:44:59;;;;;;;10.13;9.32;;;;;;;;;;5112034;27;20221;-56
2023/08/19 12:47:26;;;;;;;10.07;9.38;;;;;;;;;;5102439;27;20915;-58
2023/08/19 12:49:53;;;;;;;9.63;8.73;;;;;;;;;;5119551;27;20193;-53
2023/08/19 12:52:20;;;;;;;10.30;9.52;;;;;;;;;;5111448;27;20700;-56
2023/08/19 12:54:47;;;;;;;9.98;9.05;;;;;;;;;;5118757;27;20196;-56
2023/08/19 12:57:14;;;;;;;10.25;9.32;;;;;;;;;;5113264;27;20225;-57
2023/08/19 12:59:42;;;;;;;10.38;9.48;;;;;;;;;;5110408;27;20193;-55
2023/08/19 13:02:10;;;;;;;9.15;8.48;;;;;;;;;;5119608;27;20224;-57
2023/08/19 13:04:37;;;;;;;10.27;9.20;;;;;;;;;;5122614;27;20181;-52
2023/08/19 13:07:05;;;;;;;10.05;9.05;;;;;;;;;;5120614;27;20697;-53
2023/08/19 13:09:32;;;;;;;11.75;10.27;;;;;;;;;;5100576;27;20887;-54